sensor_id;sensor_type;location;lat;lon;timestamp;P1;durP1;ratioP1;P2;durP2;ratioP2
82797;SDS011;72540;62.834;27.606;2024-03-02T00:00:04;5.03;;;1.90;;
82797;SDS011;72540;62.834;27.606;2024-03-02T00:02:44;5.25;;;2.00;;
82797;SDS011;72540;62.834;27.606;2024-03-02T00:05:11;4.07;;;1.42;;
82797;SDS011;72540;62.834;27.606;2024-03-02T00:07:41;4.90;;;1.77;;
82797;SDS011;72540;62.834;27.606;2024-03-02T00:10:10;5.28;;;1.75;;
82797;SDS011;72540;62.834;27.606;2024-03-02T00:12:40;3.72;;;1.30;;
82797;SDS011;72540;62.834;27.606;2024-03-02T00:15:17;4.38;;;1.33;;
82797;SDS011;72540;62.834;27.606;2024-03-02T00:17:56;4.32;;;1.50;;
82797;SDS011;72540;62.834;27.606;2024-03-02T00:20:24;5.47;;;1.73;;
82797;SDS011;72540;62.834;27.606;2024-03-02T00:22:57;3.63;;;1.10;;
82797;SDS011;72540;62.834;27.606;2024-03-02T00:25:43;3.35;;;1.17;;
82797;SDS011;72540;62.834;27.606;2024-03-02T00:28:13;3.75;;;1.20;;
82797;SDS011;72540;62.834;27.606;2024-03-02T00:33:23;3.33;;;1.15;;
82797;SDS011;72540;62.834;27.606;2024-03-02T00:35:51;4.00;;;1.20;;
82797;SDS011;72540;62.834;27.606;2024-03-02T00:38:17;3.25;;;1.02;;
82797;SDS011;72540;62.834;27.606;2024-03-02T00:40:43;2.53;;;0.98;;
82797;SDS011;72540;62.834;27.606;2024-03-02T00:43:54;3.08;;;1.00;;
82797;SDS011;72540;62.834;27.606;2024-03-02T00:46:06;4.15;;;1.27;;
82797;SDS011;72540;62.834;27.606;2024-03-02T00:48:32;3.42;;;1.08;;
82797;SDS011;72540;62.834;27.606;2024-03-02T00:51:01;2.90;;;1.00;;
82797;SDS011;72540;62.834;27.606;2024-03-02T00:53:31;3.35;;;1.13;;
82797;SDS011;72540;62.834;27.606;2024-03-02T00:56:00;3.72;;;1.00;;
82797;SDS011;72540;62.834;27.606;2024-03-02T00:58:26;2.88;;;1.10;;
82797;SDS011;72540;62.834;27.606;2024-03-02T01:00:52;3.03;;;0.95;;
82797;SDS011;72540;62.834;27.606;2024-03-02T01:03:18;4.03;;;1.10;;
82797;SDS011;72540;62.834;27.606;2024-03-02T01:05:44;3.75;;;0.85;;
82797;SDS011;72540;62.834;27.606;2024-03-02T01:08:10;3.03;;;0.77;;
82797;SDS011;72540;62.834;27.606;2024-03-02T01:10:36;2.88;;;0.93;;
82797;SDS011;72540;62.834;27.606;2024-03-02T01:13:01;3.03;;;0.80;;
82797;SDS011;72540;62.834;27.606;2024-03-02T01:15:27;6.30;;;1.00;;
82797;SDS011;72540;62.834;27.606;2024-03-02T01:17:53;2.67;;;1.00;;
82797;SDS011;72540;62.834;27.606;2024-03-02T01:20:19;2.40;;;0.80;;
82797;SDS011;72540;62.834;27.606;2024-03-02T01:22:45;2.95;;;0.93;;
82797;SDS011;72540;62.834;27.606;2024-03-02T01:25:11;2.35;;;0.75;;
82797;SDS011;72540;62.834;27.606;2024-03-02T01:27:36;3.17;;;0.95;;
82797;SDS011;72540;62.834;27.606;2024-03-02T01:30:02;3.90;;;1.20;;
82797;SDS011;72540;62.834;27.606;2024-03-02T01:32:28;3.38;;;1.17;;
82797;SDS011;72540;62.834;27.606;2024-03-02T01:34:53;3.83;;;1.20;;
82797;SDS011;72540;62.834;27.606;2024-03-02T01:37:19;2.70;;;1.00;;
82797;SDS011;72540;62.834;27.606;2024-03-02T01:39:45;6.05;;;0.95;;
82797;SDS011;72540;62.834;27.606;2024-03-02T01:42:10;3.17;;;0.85;;
82797;SDS011;72540;62.834;27.606;2024-03-02T01:44:36;3.65;;;1.05;;
82797;SDS011;72540;62.834;27.606;2024-03-02T01:47:02;2.85;;;0.93;;
82797;SDS011;72540;62.834;27.606;2024-03-02T01:49:28;2.55;;;1.08;;
82797;SDS011;72540;62.834;27.606;2024-03-02T01:51:54;4.90;;;1.20;;
82797;SDS011;72540;62.834;27.606;2024-03-02T01:54:19;3.75;;;1.10;;
82797;SDS011;72540;62.834;27.606;2024-03-02T01:56:45;5.57;;;1.60;;
82797;SDS011;72540;62.834;27.606;2024-03-02T01:59:11;4.40;;;1.35;;
82797;SDS011;72540;62.834;27.606;2024-03-02T02:01:38;3.42;;;1.15;;
82797;SDS011;72540;62.834;27.606;2024-03-02T02:04:04;6.63;;;1.33;;
82797;SDS011;72540;62.834;27.606;2024-03-02T02:06:31;5.43;;;1.80;;
82797;SDS011;72540;62.834;27.606;2024-03-02T02:08:57;4.03;;;1.20;;
82797;SDS011;72540;62.834;27.606;2024-03-02T02:11:23;4.07;;;1.25;;
82797;SDS011;72540;62.834;27.606;2024-03-02T02:13:49;4.88;;;1.42;;
82797;SDS011;72540;62.834;27.606;2024-03-02T02:16:15;6.70;;;1.70;;
82797;SDS011;72540;62.834;27.606;2024-03-02T02:18:41;4.63;;;1.25;;
82797;SDS011;72540;62.834;27.606;2024-03-02T02:21:07;4.75;;;1.15;;
82797;SDS011;72540;62.834;27.606;2024-03-02T02:23:33;6.30;;;2.08;;
82797;SDS011;72540;62.834;27.606;2024-03-02T02:25:59;5.43;;;1.33;;
82797;SDS011;72540;62.834;27.606;2024-03-02T02:28:24;6.53;;;1.98;;
82797;SDS011;72540;62.834;27.606;2024-03-02T02:30:50;5.40;;;1.50;;
82797;SDS011;72540;62.834;27.606;2024-03-02T02:33:16;5.22;;;2.10;;
82797;SDS011;72540;62.834;27.606;2024-03-02T02:35:42;5.07;;;1.70;;
82797;SDS011;72540;62.834;27.606;2024-03-02T02:38:07;4.30;;;1.52;;
82797;SDS011;72540;62.834;27.606;2024-03-02T02:40:33;5.47;;;1.88;;
82797;SDS011;72540;62.834;27.606;2024-03-02T02:42:58;5.70;;;1.58;;
82797;SDS011;72540;62.834;27.606;2024-03-02T02:45:24;7.53;;;1.80;;
82797;SDS011;72540;62.834;27.606;2024-03-02T02:47:50;5.18;;;1.90;;
82797;SDS011;72540;62.834;27.606;2024-03-02T02:50:16;4.63;;;1.50;;
82797;SDS011;72540;62.834;27.606;2024-03-02T02:52:42;4.40;;;1.42;;
82797;SDS011;72540;62.834;27.606;2024-03-02T02:55:11;4.47;;;1.38;;
82797;SDS011;72540;62.834;27.606;2024-03-02T02:57:39;5.45;;;1.50;;
82797;SDS011;72540;62.834;27.606;2024-03-02T03:00:10;4.00;;;1.20;;
82797;SDS011;72540;62.834;27.606;2024-03-02T03:02:41;6.28;;;1.90;;
82797;SDS011;72540;62.834;27.606;2024-03-02T03:05:08;4.43;;;1.35;;
82797;SDS011;72540;62.834;27.606;2024-03-02T03:07:35;4.97;;;1.27;;
82797;SDS011;72540;62.834;27.606;2024-03-02T03:10:02;4.15;;;1.30;;
82797;SDS011;72540;62.834;27.606;2024-03-02T03:12:29;5.65;;;1.67;;
82797;SDS011;72540;62.834;27.606;2024-03-02T03:14:56;4.85;;;1.67;;
82797;SDS011;72540;62.834;27.606;2024-03-02T03:17:22;5.85;;;1.50;;
82797;SDS011;72540;62.834;27.606;2024-03-02T03:19:48;6.10;;;2.22;;
82797;SDS011;72540;62.834;27.606;2024-03-02T03:22:14;7.18;;;1.88;;
82797;SDS011;72540;62.834;27.606;2024-03-02T03:24:40;6.82;;;2.17;;
82797;SDS011;72540;62.834;27.606;2024-03-02T03:27:05;5.88;;;2.08;;
82797;SDS011;72540;62.834;27.606;2024-03-02T03:29:31;5.18;;;1.80;;
82797;SDS011;72540;62.834;27.606;2024-03-02T03:31:57;4.63;;;1.73;;
82797;SDS011;72540;62.834;27.606;2024-03-02T03:34:22;5.35;;;1.95;;
82797;SDS011;72540;62.834;27.606;2024-03-02T03:36:48;6.30;;;2.20;;
82797;SDS011;72540;62.834;27.606;2024-03-02T03:39:14;5.70;;;1.95;;
82797;SDS011;72540;62.834;27.606;2024-03-02T03:41:42;6.57;;;2.00;;
82797;SDS011;72540;62.834;27.606;2024-03-02T03:44:08;5.47;;;1.85;;
82797;SDS011;72540;62.834;27.606;2024-03-02T03:46:33;5.18;;;1.85;;
82797;SDS011;72540;62.834;27.606;2024-03-02T03:48:59;6.25;;;1.90;;
82797;SDS011;72540;62.834;27.606;2024-03-02T03:51:25;8.00;;;2.20;;
82797;SDS011;72540;62.834;27.606;2024-03-02T03:53:50;8.57;;;2.38;;
82797;SDS011;72540;62.834;27.606;2024-03-02T03:56:16;6.07;;;2.00;;
82797;SDS011;72540;62.834;27.606;2024-03-02T03:58:42;5.97;;;1.75;;
82797;SDS011;72540;62.834;27.606;2024-03-02T04:01:07;6.88;;;2.00;;
82797;SDS011;72540;62.834;27.606;2024-03-02T04:03:33;6.32;;;2.22;;
82797;SDS011;72540;62.834;27.606;2024-03-02T04:05:59;5.43;;;1.77;;
82797;SDS011;72540;62.834;27.606;2024-03-02T04:08:24;6.45;;;2.35;;
82797;SDS011;72540;62.834;27.606;2024-03-02T04:10:50;7.07;;;2.55;;
82797;SDS011;72540;62.834;27.606;2024-03-02T04:13:15;5.55;;;1.60;;
82797;SDS011;72540;62.834;27.606;2024-03-02T04:15:41;5.93;;;1.80;;
82797;SDS011;72540;62.834;27.606;2024-03-02T04:18:07;6.60;;;1.98;;
82797;SDS011;72540;62.834;27.606;2024-03-02T04:20:32;5.90;;;2.03;;
82797;SDS011;72540;62.834;27.606;2024-03-02T04:22:58;6.63;;;2.40;;
82797;SDS011;72540;62.834;27.606;2024-03-02T04:25:23;6.22;;;1.98;;
82797;SDS011;72540;62.834;27.606;2024-03-02T04:27:49;6.55;;;2.20;;
82797;SDS011;72540;62.834;27.606;2024-03-02T04:30:14;7.82;;;2.55;;
82797;SDS011;72540;62.834;27.606;2024-03-02T04:32:40;9.02;;;2.13;;
82797;SDS011;72540;62.834;27.606;2024-03-02T04:35:06;7.75;;;2.65;;
82797;SDS011;72540;62.834;27.606;2024-03-02T04:37:35;7.38;;;2.58;;
82797;SDS011;72540;62.834;27.606;2024-03-02T04:40:00;7.35;;;2.58;;
82797;SDS011;72540;62.834;27.606;2024-03-02T04:42:26;6.90;;;2.20;;
82797;SDS011;72540;62.834;27.606;2024-03-02T04:44:52;8.40;;;2.80;;
82797;SDS011;72540;62.834;27.606;2024-03-02T04:47:18;7.38;;;2.35;;
82797;SDS011;72540;62.834;27.606;2024-03-02T04:49:43;10.88;;;3.03;;
82797;SDS011;72540;62.834;27.606;2024-03-02T04:52:12;8.63;;;2.58;;
82797;SDS011;72540;62.834;27.606;2024-03-02T04:54:37;8.27;;;2.67;;
82797;SDS011;72540;62.834;27.606;2024-03-02T04:57:23;7.57;;;2.53;;
82797;SDS011;72540;62.834;27.606;2024-03-02T04:59:48;9.18;;;2.97;;
82797;SDS011;72540;62.834;27.606;2024-03-02T05:02:14;7.90;;;2.70;;
82797;SDS011;72540;62.834;27.606;2024-03-02T05:04:40;8.75;;;2.80;;
82797;SDS011;72540;62.834;27.606;2024-03-02T05:07:07;8.77;;;3.05;;
82797;SDS011;72540;62.834;27.606;2024-03-02T05:09:32;8.50;;;3.22;;
82797;SDS011;72540;62.834;27.606;2024-03-02T05:11:58;9.63;;;3.00;;
82797;SDS011;72540;62.834;27.606;2024-03-02T05:14:42;7.45;;;3.22;;
82797;SDS011;72540;62.834;27.606;2024-03-02T05:17:07;11.48;;;3.45;;
82797;SDS011;72540;62.834;27.606;2024-03-02T05:19:33;9.63;;;3.60;;
82797;SDS011;72540;62.834;27.606;2024-03-02T05:21:59;11.98;;;3.38;;
82797;SDS011;72540;62.834;27.606;2024-03-02T05:24:25;11.15;;;4.30;;
82797;SDS011;72540;62.834;27.606;2024-03-02T05:26:53;13.80;;;3.33;;
82797;SDS011;72540;62.834;27.606;2024-03-02T05:29:18;10.90;;;3.38;;
82797;SDS011;72540;62.834;27.606;2024-03-02T05:31:44;14.20;;;3.45;;
82797;SDS011;72540;62.834;27.606;2024-03-02T05:34:10;10.73;;;3.70;;
82797;SDS011;72540;62.834;27.606;2024-03-02T05:36:35;10.95;;;3.78;;
82797;SDS011;72540;62.834;27.606;2024-03-02T05:39:03;17.45;;;4.38;;
82797;SDS011;72540;62.834;27.606;2024-03-02T05:41:31;16.33;;;4.28;;
82797;SDS011;72540;62.834;27.606;2024-03-02T05:43:57;15.25;;;4.22;;
82797;SDS011;72540;62.834;27.606;2024-03-02T05:46:23;13.82;;;4.22;;
82797;SDS011;72540;62.834;27.606;2024-03-02T05:48:49;11.10;;;3.97;;
82797;SDS011;72540;62.834;27.606;2024-03-02T05:51:14;11.57;;;4.05;;
82797;SDS011;72540;62.834;27.606;2024-03-02T05:53:40;12.73;;;3.90;;
82797;SDS011;72540;62.834;27.606;2024-03-02T05:56:07;12.38;;;4.40;;
82797;SDS011;72540;62.834;27.606;2024-03-02T05:58:33;14.15;;;4.57;;
82797;SDS011;72540;62.834;27.606;2024-03-02T06:01:17;11.98;;;3.78;;
82797;SDS011;72540;62.834;27.606;2024-03-02T06:03:43;17.70;;;4.28;;
82797;SDS011;72540;62.834;27.606;2024-03-02T06:06:09;12.40;;;4.18;;
82797;SDS011;72540;62.834;27.606;2024-03-02T06:08:35;12.38;;;4.22;;
82797;SDS011;72540;62.834;27.606;2024-03-02T06:11:00;12.88;;;4.57;;
82797;SDS011;72540;62.834;27.606;2024-03-02T06:13:26;15.43;;;4.97;;
82797;SDS011;72540;62.834;27.606;2024-03-02T06:15:52;13.00;;;4.22;;
82797;SDS011;72540;62.834;27.606;2024-03-02T06:18:17;10.45;;;4.20;;
82797;SDS011;72540;62.834;27.606;2024-03-02T06:20:43;15.88;;;4.47;;
82797;SDS011;72540;62.834;27.606;2024-03-02T06:23:09;15.77;;;4.68;;
82797;SDS011;72540;62.834;27.606;2024-03-02T06:25:35;14.45;;;4.57;;
82797;SDS011;72540;62.834;27.606;2024-03-02T06:28:00;12.98;;;3.95;;
82797;SDS011;72540;62.834;27.606;2024-03-02T06:30:26;12.77;;;4.00;;
82797;SDS011;72540;62.834;27.606;2024-03-02T06:32:52;10.15;;;4.15;;
82797;SDS011;72540;62.834;27.606;2024-03-02T06:35:18;11.23;;;3.75;;
82797;SDS011;72540;62.834;27.606;2024-03-02T06:37:45;10.95;;;3.83;;
82797;SDS011;72540;62.834;27.606;2024-03-02T06:40:11;12.82;;;4.45;;
82797;SDS011;72540;62.834;27.606;2024-03-02T06:42:36;13.48;;;3.65;;
82797;SDS011;72540;62.834;27.606;2024-03-02T06:45:02;12.02;;;4.30;;
82797;SDS011;72540;62.834;27.606;2024-03-02T06:47:28;15.27;;;5.10;;
82797;SDS011;72540;62.834;27.606;2024-03-02T06:49:54;11.38;;;3.78;;
82797;SDS011;72540;62.834;27.606;2024-03-02T06:52:22;11.10;;;4.22;;
82797;SDS011;72540;62.834;27.606;2024-03-02T06:54:48;13.50;;;4.22;;
82797;SDS011;72540;62.834;27.606;2024-03-02T06:57:13;11.65;;;4.13;;
82797;SDS011;72540;62.834;27.606;2024-03-02T06:59:39;10.68;;;3.88;;
82797;SDS011;72540;62.834;27.606;2024-03-02T07:02:04;15.77;;;4.10;;
82797;SDS011;72540;62.834;27.606;2024-03-02T07:04:30;10.75;;;3.90;;
82797;SDS011;72540;62.834;27.606;2024-03-02T07:06:56;10.52;;;3.53;;
82797;SDS011;72540;62.834;27.606;2024-03-02T07:09:21;11.70;;;4.07;;
82797;SDS011;72540;62.834;27.606;2024-03-02T07:11:48;11.38;;;3.30;;
82797;SDS011;72540;62.834;27.606;2024-03-02T07:14:14;10.38;;;4.07;;
82797;SDS011;72540;62.834;27.606;2024-03-02T07:16:40;16.65;;;4.55;;
82797;SDS011;72540;62.834;27.606;2024-03-02T07:19:08;12.70;;;4.63;;
82797;SDS011;72540;62.834;27.606;2024-03-02T07:21:34;11.55;;;3.55;;
82797;SDS011;72540;62.834;27.606;2024-03-02T07:24:00;10.25;;;3.83;;
82797;SDS011;72540;62.834;27.606;2024-03-02T07:26:28;9.70;;;3.92;;
82797;SDS011;72540;62.834;27.606;2024-03-02T07:28:56;10.85;;;3.88;;
82797;SDS011;72540;62.834;27.606;2024-03-02T07:31:22;10.15;;;3.88;;
82797;SDS011;72540;62.834;27.606;2024-03-02T07:33:47;10.70;;;3.90;;
82797;SDS011;72540;62.834;27.606;2024-03-02T07:36:13;10.57;;;3.35;;
82797;SDS011;72540;62.834;27.606;2024-03-02T07:38:39;11.15;;;3.70;;
82797;SDS011;72540;62.834;27.606;2024-03-02T07:41:05;10.30;;;3.80;;
82797;SDS011;72540;62.834;27.606;2024-03-02T07:43:32;10.00;;;3.13;;
82797;SDS011;72540;62.834;27.606;2024-03-02T07:45:58;8.10;;;3.17;;
82797;SDS011;72540;62.834;27.606;2024-03-02T07:48:24;9.10;;;2.58;;
82797;SDS011;72540;62.834;27.606;2024-03-02T07:50:50;8.07;;;2.53;;
82797;SDS011;72540;62.834;27.606;2024-03-02T07:53:16;8.63;;;3.30;;
82797;SDS011;72540;62.834;27.606;2024-03-02T07:55:42;10.38;;;3.20;;
82797;SDS011;72540;62.834;27.606;2024-03-02T07:58:07;10.05;;;3.90;;
82797;SDS011;72540;62.834;27.606;2024-03-02T08:00:34;11.15;;;3.88;;
82797;SDS011;72540;62.834;27.606;2024-03-02T08:03:00;8.65;;;3.40;;
82797;SDS011;72540;62.834;27.606;2024-03-02T08:05:26;9.32;;;3.63;;
82797;SDS011;72540;62.834;27.606;2024-03-02T08:07:52;9.35;;;3.70;;
82797;SDS011;72540;62.834;27.606;2024-03-02T08:10:18;6.15;;;2.60;;
82797;SDS011;72540;62.834;27.606;2024-03-02T08:12:44;8.13;;;2.75;;
82797;SDS011;72540;62.834;27.606;2024-03-02T08:15:10;7.43;;;3.05;;
82797;SDS011;72540;62.834;27.606;2024-03-02T08:17:38;9.23;;;2.80;;
82797;SDS011;72540;62.834;27.606;2024-03-02T08:20:10;8.43;;;2.53;;
82797;SDS011;72540;62.834;27.606;2024-03-02T08:22:36;6.50;;;2.05;;
82797;SDS011;72540;62.834;27.606;2024-03-02T08:25:02;6.82;;;2.35;;
82797;SDS011;72540;62.834;27.606;2024-03-02T08:27:28;5.75;;;1.98;;
82797;SDS011;72540;62.834;27.606;2024-03-02T08:29:53;5.78;;;2.17;;
82797;SDS011;72540;62.834;27.606;2024-03-02T08:32:19;6.93;;;2.58;;
82797;SDS011;72540;62.834;27.606;2024-03-02T08:34:45;5.40;;;1.98;;
82797;SDS011;72540;62.834;27.606;2024-03-02T08:37:10;5.80;;;2.03;;
82797;SDS011;72540;62.834;27.606;2024-03-02T08:39:36;6.40;;;1.92;;
82797;SDS011;72540;62.834;27.606;2024-03-02T08:42:02;6.32;;;2.08;;
82797;SDS011;72540;62.834;27.606;2024-03-02T08:44:29;7.47;;;1.70;;
82797;SDS011;72540;62.834;27.606;2024-03-02T08:46:55;4.35;;;1.42;;
82797;SDS011;72540;62.834;27.606;2024-03-02T08:49:21;4.28;;;1.50;;
82797;SDS011;72540;62.834;27.606;2024-03-02T08:51:47;5.78;;;1.83;;
82797;SDS011;72540;62.834;27.606;2024-03-02T08:54:21;4.40;;;1.73;;
82797;SDS011;72540;62.834;27.606;2024-03-02T08:56:47;4.15;;;1.38;;
82797;SDS011;72540;62.834;27.606;2024-03-02T08:59:13;5.15;;;1.92;;
82797;SDS011;72540;62.834;27.606;2024-03-02T09:01:39;4.70;;;1.75;;
82797;SDS011;72540;62.834;27.606;2024-03-02T09:04:07;6.03;;;2.15;;
82797;SDS011;72540;62.834;27.606;2024-03-02T09:06:34;5.25;;;1.80;;
82797;SDS011;72540;62.834;27.606;2024-03-02T09:09:00;4.38;;;1.55;;
82797;SDS011;72540;62.834;27.606;2024-03-02T09:11:26;4.30;;;1.30;;
82797;SDS011;72540;62.834;27.606;2024-03-02T09:13:51;4.55;;;1.20;;
82797;SDS011;72540;62.834;27.606;2024-03-02T09:16:18;4.25;;;1.27;;
82797;SDS011;72540;62.834;27.606;2024-03-02T09:18:44;4.20;;;1.27;;
82797;SDS011;72540;62.834;27.606;2024-03-02T09:21:10;3.63;;;1.40;;
82797;SDS011;72540;62.834;27.606;2024-03-02T09:23:35;3.35;;;1.13;;
82797;SDS011;72540;62.834;27.606;2024-03-02T09:26:01;2.90;;;0.95;;
82797;SDS011;72540;62.834;27.606;2024-03-02T09:28:28;3.38;;;1.30;;
82797;SDS011;72540;62.834;27.606;2024-03-02T09:30:53;3.53;;;1.20;;
82797;SDS011;72540;62.834;27.606;2024-03-02T09:33:19;3.38;;;1.20;;
82797;SDS011;72540;62.834;27.606;2024-03-02T09:35:45;6.22;;;1.33;;
82797;SDS011;72540;62.834;27.606;2024-03-02T09:38:10;4.07;;;1.27;;
82797;SDS011;72540;62.834;27.606;2024-03-02T09:40:36;4.18;;;1.23;;
82797;SDS011;72540;62.834;27.606;2024-03-02T09:43:02;3.97;;;1.30;;
82797;SDS011;72540;62.834;27.606;2024-03-02T09:45:28;5.72;;;1.40;;
82797;SDS011;72540;62.834;27.606;2024-03-02T09:47:55;4.50;;;1.35;;
82797;SDS011;72540;62.834;27.606;2024-03-02T09:50:20;3.80;;;1.20;;
82797;SDS011;72540;62.834;27.606;2024-03-02T09:52:49;4.28;;;1.38;;
82797;SDS011;72540;62.834;27.606;2024-03-02T09:55:15;4.25;;;1.48;;
82797;SDS011;72540;62.834;27.606;2024-03-02T09:57:43;4.72;;;1.67;;
82797;SDS011;72540;62.834;27.606;2024-03-02T10:00:09;18.77;;;6.47;;
82797;SDS011;72540;62.834;27.606;2024-03-02T10:02:40;9.45;;;3.22;;
82797;SDS011;72540;62.834;27.606;2024-03-02T10:05:07;37.42;;;18.42;;
82797;SDS011;72540;62.834;27.606;2024-03-02T10:07:37;55.22;;;16.48;;
82797;SDS011;72540;62.834;27.606;2024-03-02T10:10:13;12.63;;;3.92;;
82797;SDS011;72540;62.834;27.606;2024-03-02T10:12:40;6.15;;;2.25;;
82797;SDS011;72540;62.834;27.606;2024-03-02T10:15:06;8.77;;;2.60;;
82797;SDS011;72540;62.834;27.606;2024-03-02T10:17:32;6.65;;;2.75;;
82797;SDS011;72540;62.834;27.606;2024-03-02T10:19:58;7.60;;;3.00;;
82797;SDS011;72540;62.834;27.606;2024-03-02T10:22:24;6.20;;;2.17;;
82797;SDS011;72540;62.834;27.606;2024-03-02T10:24:51;7.65;;;3.50;;
82797;SDS011;72540;62.834;27.606;2024-03-02T10:27:25;5.40;;;1.90;;
82797;SDS011;72540;62.834;27.606;2024-03-02T10:29:52;9.65;;;1.90;;
82797;SDS011;72540;62.834;27.606;2024-03-02T10:32:18;4.43;;;1.60;;
82797;SDS011;72540;62.834;27.606;2024-03-02T10:34:47;6.13;;;2.30;;
82797;SDS011;72540;62.834;27.606;2024-03-02T10:37:13;5.80;;;1.95;;
82797;SDS011;72540;62.834;27.606;2024-03-02T10:39:40;7.93;;;1.95;;
82797;SDS011;72540;62.834;27.606;2024-03-02T10:42:06;6.32;;;1.77;;
82797;SDS011;72540;62.834;27.606;2024-03-02T10:44:32;6.80;;;1.98;;
82797;SDS011;72540;62.834;27.606;2024-03-02T10:47:00;7.22;;;2.20;;
82797;SDS011;72540;62.834;27.606;2024-03-02T10:49:27;6.93;;;2.42;;
82797;SDS011;72540;62.834;27.606;2024-03-02T10:51:54;5.72;;;2.17;;
82797;SDS011;72540;62.834;27.606;2024-03-02T10:54:20;5.90;;;2.28;;
82797;SDS011;72540;62.834;27.606;2024-03-02T10:56:58;5.53;;;2.40;;
82797;SDS011;72540;62.834;27.606;2024-03-02T10:59:28;5.32;;;2.00;;
82797;SDS011;72540;62.834;27.606;2024-03-02T11:02:00;8.77;;;2.67;;
82797;SDS011;72540;62.834;27.606;2024-03-02T11:04:27;6.97;;;2.38;;
82797;SDS011;72540;62.834;27.606;2024-03-02T11:07:06;6.00;;;2.17;;
82797;SDS011;72540;62.834;27.606;2024-03-02T11:09:34;7.22;;;2.50;;
82797;SDS011;72540;62.834;27.606;2024-03-02T11:14:44;5.93;;;2.22;;
82797;SDS011;72540;62.834;27.606;2024-03-02T11:17:10;6.00;;;2.50;;
82797;SDS011;72540;62.834;27.606;2024-03-02T11:19:40;6.03;;;2.13;;
82797;SDS011;72540;62.834;27.606;2024-03-02T11:22:06;6.80;;;2.42;;
82797;SDS011;72540;62.834;27.606;2024-03-02T11:24:32;6.38;;;2.50;;
82797;SDS011;72540;62.834;27.606;2024-03-02T11:26:59;6.25;;;2.30;;
82797;SDS011;72540;62.834;27.606;2024-03-02T11:32:04;5.90;;;2.03;;
82797;SDS011;72540;62.834;27.606;2024-03-02T11:34:44;7.03;;;3.15;;
82797;SDS011;72540;62.834;27.606;2024-03-02T11:37:15;8.27;;;3.03;;
82797;SDS011;72540;62.834;27.606;2024-03-02T11:39:46;6.05;;;2.60;;
82797;SDS011;72540;62.834;27.606;2024-03-02T11:42:13;6.93;;;2.60;;
82797;SDS011;72540;62.834;27.606;2024-03-02T11:44:40;6.78;;;2.45;;
82797;SDS011;72540;62.834;27.606;2024-03-02T11:47:16;6.05;;;2.65;;
82797;SDS011;72540;62.834;27.606;2024-03-02T11:49:46;6.22;;;2.63;;
82797;SDS011;72540;62.834;27.606;2024-03-02T11:52:15;6.30;;;2.30;;
82797;SDS011;72540;62.834;27.606;2024-03-02T11:54:46;8.05;;;2.50;;
82797;SDS011;72540;62.834;27.606;2024-03-02T11:57:13;8.57;;;2.85;;
82797;SDS011;72540;62.834;27.606;2024-03-02T11:59:42;6.15;;;2.50;;
82797;SDS011;72540;62.834;27.606;2024-03-02T12:02:14;5.72;;;2.33;;
82797;SDS011;72540;62.834;27.606;2024-03-02T12:04:42;6.10;;;2.05;;
82797;SDS011;72540;62.834;27.606;2024-03-02T12:07:08;5.57;;;1.88;;
82797;SDS011;72540;62.834;27.606;2024-03-02T12:09:34;7.68;;;2.42;;
82797;SDS011;72540;62.834;27.606;2024-03-02T12:12:07;7.45;;;2.78;;
82797;SDS011;72540;62.834;27.606;2024-03-02T12:14:33;8.07;;;2.35;;
82797;SDS011;72540;62.834;27.606;2024-03-02T12:17:00;6.35;;;2.28;;
82797;SDS011;72540;62.834;27.606;2024-03-02T12:19:26;6.68;;;2.33;;
82797;SDS011;72540;62.834;27.606;2024-03-02T12:21:53;6.30;;;2.22;;
82797;SDS011;72540;62.834;27.606;2024-03-02T12:24:20;5.00;;;1.80;;
82797;SDS011;72540;62.834;27.606;2024-03-02T12:26:48;8.32;;;1.80;;
82797;SDS011;72540;62.834;27.606;2024-03-02T12:29:15;7.15;;;2.53;;
82797;SDS011;72540;62.834;27.606;2024-03-02T12:31:41;5.13;;;1.70;;
82797;SDS011;72540;62.834;27.606;2024-03-02T12:34:11;5.47;;;2.13;;
82797;SDS011;72540;62.834;27.606;2024-03-02T12:36:38;4.45;;;1.60;;
82797;SDS011;72540;62.834;27.606;2024-03-02T12:39:04;5.80;;;1.70;;
82797;SDS011;72540;62.834;27.606;2024-03-02T12:41:30;6.53;;;2.30;;
82797;SDS011;72540;62.834;27.606;2024-03-02T12:43:56;6.45;;;2.35;;
82797;SDS011;72540;62.834;27.606;2024-03-02T12:46:22;4.68;;;1.70;;
82797;SDS011;72540;62.834;27.606;2024-03-02T12:48:47;5.60;;;1.92;;
82797;SDS011;72540;62.834;27.606;2024-03-02T12:51:13;5.97;;;2.22;;
82797;SDS011;72540;62.834;27.606;2024-03-02T12:53:39;5.28;;;2.00;;
82797;SDS011;72540;62.834;27.606;2024-03-02T12:56:05;5.88;;;2.40;;
82797;SDS011;72540;62.834;27.606;2024-03-02T12:58:38;8.07;;;2.67;;
82797;SDS011;72540;62.834;27.606;2024-03-02T13:01:05;8.52;;;2.47;;
82797;SDS011;72540;62.834;27.606;2024-03-02T13:03:35;6.07;;;2.70;;
82797;SDS011;72540;62.834;27.606;2024-03-02T13:06:04;7.18;;;2.55;;
82797;SDS011;72540;62.834;27.606;2024-03-02T13:08:31;7.28;;;2.67;;
82797;SDS011;72540;62.834;27.606;2024-03-02T13:10:57;7.03;;;2.55;;
82797;SDS011;72540;62.834;27.606;2024-03-02T13:13:23;7.22;;;2.50;;
82797;SDS011;72540;62.834;27.606;2024-03-02T13:15:49;6.30;;;2.42;;
82797;SDS011;72540;62.834;27.606;2024-03-02T13:18:17;7.32;;;2.72;;
82797;SDS011;72540;62.834;27.606;2024-03-02T13:20:43;8.00;;;3.30;;
82797;SDS011;72540;62.834;27.606;2024-03-02T13:23:09;6.88;;;2.60;;
82797;SDS011;72540;62.834;27.606;2024-03-02T13:25:35;7.70;;;2.80;;
82797;SDS011;72540;62.834;27.606;2024-03-02T13:28:00;9.55;;;3.67;;
82797;SDS011;72540;62.834;27.606;2024-03-02T13:30:27;7.45;;;2.50;;
82797;SDS011;72540;62.834;27.606;2024-03-02T13:32:53;8.30;;;3.25;;
82797;SDS011;72540;62.834;27.606;2024-03-02T13:35:19;7.57;;;2.97;;
82797;SDS011;72540;62.834;27.606;2024-03-02T13:37:44;8.25;;;2.67;;
82797;SDS011;72540;62.834;27.606;2024-03-02T13:40:10;8.00;;;2.65;;
82797;SDS011;72540;62.834;27.606;2024-03-02T13:42:39;11.30;;;3.33;;
82797;SDS011;72540;62.834;27.606;2024-03-02T13:45:05;7.18;;;2.72;;
82797;SDS011;72540;62.834;27.606;2024-03-02T13:47:31;7.82;;;2.75;;
82797;SDS011;72540;62.834;27.606;2024-03-02T13:49:57;9.40;;;3.28;;
82797;SDS011;72540;62.834;27.606;2024-03-02T13:52:23;8.50;;;2.90;;
82797;SDS011;72540;62.834;27.606;2024-03-02T13:54:50;7.72;;;3.17;;
82797;SDS011;72540;62.834;27.606;2024-03-02T13:57:17;10.13;;;3.72;;
82797;SDS011;72540;62.834;27.606;2024-03-02T13:59:45;8.93;;;3.78;;
82797;SDS011;72540;62.834;27.606;2024-03-02T14:02:11;8.80;;;3.75;;
82797;SDS011;72540;62.834;27.606;2024-03-02T14:04:37;9.90;;;4.00;;
82797;SDS011;72540;62.834;27.606;2024-03-02T14:07:03;8.20;;;3.22;;
82797;SDS011;72540;62.834;27.606;2024-03-02T14:09:32;10.57;;;3.75;;
82797;SDS011;72540;62.834;27.606;2024-03-02T14:11:58;11.25;;;3.72;;
82797;SDS011;72540;62.834;27.606;2024-03-02T14:14:25;8.38;;;3.53;;
82797;SDS011;72540;62.834;27.606;2024-03-02T14:16:52;8.95;;;3.33;;
82797;SDS011;72540;62.834;27.606;2024-03-02T14:19:18;8.43;;;3.65;;
82797;SDS011;72540;62.834;27.606;2024-03-02T14:21:43;8.73;;;3.55;;
82797;SDS011;72540;62.834;27.606;2024-03-02T14:24:09;10.00;;;3.13;;
82797;SDS011;72540;62.834;27.606;2024-03-02T14:26:35;8.55;;;4.13;;
82797;SDS011;72540;62.834;27.606;2024-03-02T14:29:02;8.45;;;3.60;;
82797;SDS011;72540;62.834;27.606;2024-03-02T14:31:28;9.70;;;4.40;;
82797;SDS011;72540;62.834;27.606;2024-03-02T14:33:54;10.80;;;4.63;;
82797;SDS011;72540;62.834;27.606;2024-03-02T14:36:19;10.27;;;3.92;;